sensor_id;sensor_type;location;lat;lon;timestamp;P1;durP1;ratioP1;P2;durP2;ratioP2
7001;SDS011;3541;53.230;10.518;2024-03-22T00:02:26;11.70;;;7.50;;
7001;SDS011;3541;53.230;10.518;2024-03-22T00:04:52;11.47;;;6.57;;
7001;SDS011;3541;53.230;10.518;2024-03-22T00:07:18;10.97;;;6.50;;
7001;SDS011;3541;53.230;10.518;2024-03-22T00:09:44;13.63;;;7.67;;
7001;SDS011;3541;53.230;10.518;2024-03-22T00:12:11;15.43;;;7.30;;
7001;SDS011;3541;53.230;10.518;2024-03-22T00:14:37;13.20;;;7.60;;
7001;SDS011;3541;53.230;10.518;2024-03-22T00:17:05;13.27;;;7.20;;
7001;SDS011;3541;53.230;10.518;2024-03-22T00:19:30;14.03;;;8.07;;
7001;SDS011;3541;53.230;10.518;2024-03-22T00:21:57;11.73;;;7.10;;
7001;SDS011;3541;53.230;10.518;2024-03-22T00:24:23;12.67;;;7.20;;
7001;SDS011;3541;53.230;10.518;2024-03-22T00:26:49;11.87;;;6.67;;
7001;SDS011;3541;53.230;10.518;2024-03-22T00:29:15;10.40;;;7.37;;
7001;SDS011;3541;53.230;10.518;2024-03-22T00:31:41;11.80;;;7.37;;
7001;SDS011;3541;53.230;10.518;2024-03-22T00:34:08;12.70;;;7.77;;
7001;SDS011;3541;53.230;10.518;2024-03-22T00:36:35;11.27;;;7.60;;
7001;SDS011;3541;53.230;10.518;2024-03-22T00:39:01;14.03;;;7.50;;
7001;SDS011;3541;53.230;10.518;2024-03-22T00:41:28;9.90;;;7.17;;
7001;SDS011;3541;53.230;10.518;2024-03-22T00:43:54;9.43;;;7.43;;
7001;SDS011;3541;53.230;10.518;2024-03-22T00:46:21;12.00;;;7.37;;
7001;SDS011;3541;53.230;10.518;2024-03-22T00:48:46;12.37;;;7.23;;
7001;SDS011;3541;53.230;10.518;2024-03-22T00:51:14;14.67;;;8.40;;
7001;SDS011;3541;53.230;10.518;2024-03-22T00:53:40;12.43;;;7.77;;
7001;SDS011;3541;53.230;10.518;2024-03-22T00:56:06;12.17;;;8.00;;
7001;SDS011;3541;53.230;10.518;2024-03-22T00:58:32;15.23;;;7.93;;
7001;SDS011;3541;53.230;10.518;2024-03-22T01:00:59;12.40;;;8.40;;
7001;SDS011;3541;53.230;10.518;2024-03-22T01:03:24;11.53;;;8.20;;
7001;SDS011;3541;53.230;10.518;2024-03-22T01:05:51;17.53;;;9.17;;
7001;SDS011;3541;53.230;10.518;2024-03-22T01:08:18;11.13;;;8.20;;
7001;SDS011;3541;53.230;10.518;2024-03-22T01:10:44;12.63;;;9.00;;
7001;SDS011;3541;53.230;10.518;2024-03-22T01:13:10;14.33;;;8.67;;
7001;SDS011;3541;53.230;10.518;2024-03-22T01:15:36;12.23;;;8.33;;
7001;SDS011;3541;53.230;10.518;2024-03-22T01:18:02;14.13;;;9.30;;
7001;SDS011;3541;53.230;10.518;2024-03-22T01:20:29;15.37;;;9.27;;
7001;SDS011;3541;53.230;10.518;2024-03-22T01:22:55;12.37;;;8.43;;
7001;SDS011;3541;53.230;10.518;2024-03-22T01:25:23;14.00;;;9.33;;
7001;SDS011;3541;53.230;10.518;2024-03-22T01:27:48;14.70;;;10.50;;
7001;SDS011;3541;53.230;10.518;2024-03-22T01:30:15;13.13;;;10.10;;
7001;SDS011;3541;53.230;10.518;2024-03-22T01:32:41;14.10;;;9.50;;
7001;SDS011;3541;53.230;10.518;2024-03-22T01:35:08;55.03;;;33.80;;
7001;SDS011;3541;53.230;10.518;2024-03-22T01:37:33;29.73;;;18.97;;
7001;SDS011;3541;53.230;10.518;2024-03-22T01:40:00;14.97;;;9.90;;
7001;SDS011;3541;53.230;10.518;2024-03-22T01:42:27;14.67;;;10.07;;
7001;SDS011;3541;53.230;10.518;2024-03-22T01:44:54;17.33;;;10.23;;
7001;SDS011;3541;53.230;10.518;2024-03-22T01:47:19;14.37;;;10.47;;
7001;SDS011;3541;53.230;10.518;2024-03-22T01:49:46;16.50;;;10.47;;
7001;SDS011;3541;53.230;10.518;2024-03-22T01:52:12;16.37;;;10.93;;
7001;SDS011;3541;53.230;10.518;2024-03-22T01:54:40;13.43;;;10.27;;
7001;SDS011;3541;53.230;10.518;2024-03-22T01:57:05;17.27;;;11.47;;
7001;SDS011;3541;53.230;10.518;2024-03-22T01:59:33;14.30;;;10.70;;
7001;SDS011;3541;53.230;10.518;2024-03-22T02:01:59;15.97;;;10.47;;
7001;SDS011;3541;53.230;10.518;2024-03-22T02:04:27;15.57;;;11.13;;
7001;SDS011;3541;53.230;10.518;2024-03-22T02:06:53;17.03;;;11.37;;
7001;SDS011;3541;53.230;10.518;2024-03-22T02:09:19;15.23;;;11.40;;
7001;SDS011;3541;53.230;10.518;2024-03-22T02:11:46;14.50;;;10.73;;
7001;SDS011;3541;53.230;10.518;2024-03-22T02:14:13;15.80;;;11.53;;
7001;SDS011;3541;53.230;10.518;2024-03-22T02:16:40;17.80;;;11.60;;
7001;SDS011;3541;53.230;10.518;2024-03-22T02:19:07;18.00;;;12.03;;
7001;SDS011;3541;53.230;10.518;2024-03-22T02:21:33;18.87;;;12.43;;
7001;SDS011;3541;53.230;10.518;2024-03-22T02:24:00;18.67;;;12.43;;
7001;SDS011;3541;53.230;10.518;2024-03-22T02:26:26;18.07;;;12.77;;
7001;SDS011;3541;53.230;10.518;2024-03-22T02:28:53;18.27;;;12.83;;
7001;SDS011;3541;53.230;10.518;2024-03-22T02:31:18;20.07;;;12.90;;
7001;SDS011;3541;53.230;10.518;2024-03-22T02:33:45;16.10;;;12.33;;
7001;SDS011;3541;53.230;10.518;2024-03-22T02:36:10;19.73;;;12.83;;
7001;SDS011;3541;53.230;10.518;2024-03-22T02:38:37;21.20;;;13.07;;
7001;SDS011;3541;53.230;10.518;2024-03-22T02:41:04;19.67;;;13.30;;
7001;SDS011;3541;53.230;10.518;2024-03-22T02:43:31;114.73;;;63.93;;
7001;SDS011;3541;53.230;10.518;2024-03-22T02:45:56;18.27;;;14.07;;
7001;SDS011;3541;53.230;10.518;2024-03-22T02:48:23;18.93;;;12.67;;
7001;SDS011;3541;53.230;10.518;2024-03-22T02:50:48;20.80;;;14.17;;
7001;SDS011;3541;53.230;10.518;2024-03-22T02:53:15;20.43;;;14.13;;
7001;SDS011;3541;53.230;10.518;2024-03-22T02:55:41;21.10;;;15.00;;
7001;SDS011;3541;53.230;10.518;2024-03-22T02:58:08;21.43;;;14.00;;
7001;SDS011;3541;53.230;10.518;2024-03-22T03:00:35;20.70;;;14.13;;
7001;SDS011;3541;53.230;10.518;2024-03-22T03:03:02;20.67;;;14.30;;
7001;SDS011;3541;53.230;10.518;2024-03-22T03:05:28;21.13;;;14.93;;
7001;SDS011;3541;53.230;10.518;2024-03-22T03:07:54;19.07;;;14.50;;
7001;SDS011;3541;53.230;10.518;2024-03-22T03:10:20;25.57;;;15.97;;
7001;SDS011;3541;53.230;10.518;2024-03-22T03:12:47;23.60;;;16.07;;
7001;SDS011;3541;53.230;10.518;2024-03-22T03:15:14;19.60;;;14.50;;
7001;SDS011;3541;53.230;10.518;2024-03-22T03:17:41;19.30;;;14.10;;
7001;SDS011;3541;53.230;10.518;2024-03-22T03:20:07;22.20;;;15.10;;
7001;SDS011;3541;53.230;10.518;2024-03-22T03:22:38;19.93;;;14.60;;
7001;SDS011;3541;53.230;10.518;2024-03-22T03:25:03;21.63;;;15.50;;
7001;SDS011;3541;53.230;10.518;2024-03-22T03:27:30;23.70;;;16.17;;
7001;SDS011;3541;53.230;10.518;2024-03-22T03:29:56;23.73;;;15.47;;
7001;SDS011;3541;53.230;10.518;2024-03-22T03:32:24;23.23;;;16.23;;
7001;SDS011;3541;53.230;10.518;2024-03-22T03:34:50;27.87;;;16.77;;
7001;SDS011;3541;53.230;10.518;2024-03-22T03:37:16;23.00;;;15.03;;
7001;SDS011;3541;53.230;10.518;2024-03-22T03:39:42;23.47;;;15.83;;
7001;SDS011;3541;53.230;10.518;2024-03-22T03:42:08;23.10;;;16.87;;
7001;SDS011;3541;53.230;10.518;2024-03-22T03:44:35;24.67;;;16.83;;
7001;SDS011;3541;53.230;10.518;2024-03-22T03:47:02;25.87;;;16.93;;
7001;SDS011;3541;53.230;10.518;2024-03-22T03:49:29;23.40;;;16.00;;
7001;SDS011;3541;53.230;10.518;2024-03-22T03:51:56;24.07;;;17.63;;
7001;SDS011;3541;53.230;10.518;2024-03-22T03:54:21;25.37;;;17.47;;
7001;SDS011;3541;53.230;10.518;2024-03-22T03:56:48;26.10;;;17.33;;
7001;SDS011;3541;53.230;10.518;2024-03-22T03:59:13;23.53;;;16.30;;
7001;SDS011;3541;53.230;10.518;2024-03-22T04:01:40;26.50;;;17.53;;
7001;SDS011;3541;53.230;10.518;2024-03-22T04:04:05;27.93;;;18.03;;
7001;SDS011;3541;53.230;10.518;2024-03-22T04:06:33;25.40;;;16.90;;
7001;SDS011;3541;53.230;10.518;2024-03-22T04:08:59;27.23;;;18.03;;
7001;SDS011;3541;53.230;10.518;2024-03-22T04:11:27;25.70;;;17.43;;
7001;SDS011;3541;53.230;10.518;2024-03-22T04:13:53;26.77;;;18.07;;
7001;SDS011;3541;53.230;10.518;2024-03-22T04:16:20;27.93;;;17.47;;
7001;SDS011;3541;53.230;10.518;2024-03-22T04:18:45;29.23;;;18.40;;
7001;SDS011;3541;53.230;10.518;2024-03-22T04:21:12;27.73;;;18.80;;
7001;SDS011;3541;53.230;10.518;2024-03-22T04:23:39;28.97;;;18.37;;
7001;SDS011;3541;53.230;10.518;2024-03-22T04:26:05;25.97;;;17.67;;
7001;SDS011;3541;53.230;10.518;2024-03-22T04:28:31;28.70;;;19.63;;
7001;SDS011;3541;53.230;10.518;2024-03-22T04:30:58;28.77;;;18.83;;
7001;SDS011;3541;53.230;10.518;2024-03-22T04:33:25;25.83;;;18.33;;
7001;SDS011;3541;53.230;10.518;2024-03-22T04:35:52;30.57;;;19.03;;
7001;SDS011;3541;53.230;10.518;2024-03-22T04:38:18;31.57;;;18.40;;
7001;SDS011;3541;53.230;10.518;2024-03-22T04:40:46;28.03;;;19.30;;
7001;SDS011;3541;53.230;10.518;2024-03-22T04:43:11;28.07;;;18.30;;
7001;SDS011;3541;53.230;10.518;2024-03-22T04:45:38;32.33;;;19.97;;
7001;SDS011;3541;53.230;10.518;2024-03-22T04:48:05;32.07;;;20.20;;
7001;SDS011;3541;53.230;10.518;2024-03-22T04:50:31;28.23;;;18.47;;
7001;SDS011;3541;53.230;10.518;2024-03-22T04:52:57;31.80;;;20.17;;
7001;SDS011;3541;53.230;10.518;2024-03-22T04:55:23;29.77;;;19.83;;
7001;SDS011;3541;53.230;10.518;2024-03-22T04:57:51;33.00;;;21.17;;
7001;SDS011;3541;53.230;10.518;2024-03-22T05:00:17;35.93;;;20.03;;
7001;SDS011;3541;53.230;10.518;2024-03-22T05:02:44;29.17;;;19.23;;
7001;SDS011;3541;53.230;10.518;2024-03-22T05:05:09;31.03;;;19.93;;
7001;SDS011;3541;53.230;10.518;2024-03-22T05:07:36;35.33;;;20.60;;
7001;SDS011;3541;53.230;10.518;2024-03-22T05:10:03;33.53;;;20.77;;
7001;SDS011;3541;53.230;10.518;2024-03-22T05:12:30;31.93;;;21.30;;
7001;SDS011;3541;53.230;10.518;2024-03-22T05:14:57;30.73;;;20.63;;
7001;SDS011;3541;53.230;10.518;2024-03-22T05:17:24;33.13;;;21.53;;
7001;SDS011;3541;53.230;10.518;2024-03-22T05:19:49;32.73;;;21.40;;
7001;SDS011;3541;53.230;10.518;2024-03-22T05:22:17;36.03;;;22.60;;
7001;SDS011;3541;53.230;10.518;2024-03-22T05:24:45;34.87;;;21.17;;
7001;SDS011;3541;53.230;10.518;2024-03-22T05:27:11;37.03;;;23.63;;
7001;SDS011;3541;53.230;10.518;2024-03-22T05:29:37;38.27;;;22.27;;
7001;SDS011;3541;53.230;10.518;2024-03-22T05:32:06;38.70;;;23.97;;
7001;SDS011;3541;53.230;10.518;2024-03-22T05:34:31;36.20;;;23.77;;
7001;SDS011;3541;53.230;10.518;2024-03-22T05:36:58;39.57;;;24.13;;
7001;SDS011;3541;53.230;10.518;2024-03-22T05:39:24;35.87;;;24.30;;
7001;SDS011;3541;53.230;10.518;2024-03-22T05:41:50;37.67;;;22.37;;
7001;SDS011;3541;53.230;10.518;2024-03-22T05:44:16;36.90;;;23.83;;
7001;SDS011;3541;53.230;10.518;2024-03-22T05:46:42;38.90;;;23.73;;
7001;SDS011;3541;53.230;10.518;2024-03-22T05:49:11;36.50;;;23.10;;
7001;SDS011;3541;53.230;10.518;2024-03-22T05:51:36;39.43;;;25.40;;
7001;SDS011;3541;53.230;10.518;2024-03-22T05:54:03;39.97;;;24.00;;
7001;SDS011;3541;53.230;10.518;2024-03-22T05:56:29;38.83;;;25.40;;
7001;SDS011;3541;53.230;10.518;2024-03-22T05:58:56;40.20;;;26.23;;
7001;SDS011;3541;53.230;10.518;2024-03-22T06:01:21;40.40;;;25.03;;
7001;SDS011;3541;53.230;10.518;2024-03-22T06:03:48;38.70;;;25.83;;
7001;SDS011;3541;53.230;10.518;2024-03-22T06:06:15;41.50;;;26.00;;
7001;SDS011;3541;53.230;10.518;2024-03-22T06:08:41;43.27;;;25.63;;
7001;SDS011;3541;53.230;10.518;2024-03-22T06:11:08;42.17;;;26.53;;
7001;SDS011;3541;53.230;10.518;2024-03-22T06:13:35;44.57;;;27.17;;
7001;SDS011;3541;53.230;10.518;2024-03-22T06:16:01;43.17;;;27.27;;
7001;SDS011;3541;53.230;10.518;2024-03-22T06:18:28;46.40;;;28.43;;
7001;SDS011;3541;53.230;10.518;2024-03-22T06:20:54;43.07;;;26.83;;
7001;SDS011;3541;53.230;10.518;2024-03-22T06:23:22;45.90;;;27.27;;
7001;SDS011;3541;53.230;10.518;2024-03-22T06:25:50;44.37;;;27.90;;
7001;SDS011;3541;53.230;10.518;2024-03-22T06:28:17;43.00;;;27.90;;
7001;SDS011;3541;53.230;10.518;2024-03-22T06:30:44;47.27;;;28.97;;
7001;SDS011;3541;53.230;10.518;2024-03-22T06:33:10;49.97;;;29.33;;
7001;SDS011;3541;53.230;10.518;2024-03-22T06:35:36;47.17;;;29.13;;
7001;SDS011;3541;53.230;10.518;2024-03-22T06:38:02;45.93;;;27.33;;
7001;SDS011;3541;53.230;10.518;2024-03-22T06:40:30;51.93;;;28.77;;
7001;SDS011;3541;53.230;10.518;2024-03-22T06:42:57;49.23;;;28.63;;
7001;SDS011;3541;53.230;10.518;2024-03-22T06:45:23;46.63;;;29.33;;
7001;SDS011;3541;53.230;10.518;2024-03-22T06:47:49;51.63;;;28.77;;
7001;SDS011;3541;53.230;10.518;2024-03-22T06:50:16;45.97;;;27.93;;
7001;SDS011;3541;53.230;10.518;2024-03-22T06:52:42;47.63;;;28.93;;
7001;SDS011;3541;53.230;10.518;2024-03-22T06:55:09;49.57;;;29.83;;
7001;SDS011;3541;53.230;10.518;2024-03-22T06:57:36;50.60;;;30.00;;
7001;SDS011;3541;53.230;10.518;2024-03-22T07:00:03;52.47;;;29.67;;
7001;SDS011;3541;53.230;10.518;2024-03-22T07:02:29;50.87;;;30.27;;
7001;SDS011;3541;53.230;10.518;2024-03-22T07:04:56;51.17;;;31.00;;
7001;SDS011;3541;53.230;10.518;2024-03-22T07:07:21;56.03;;;31.13;;
7001;SDS011;3541;53.230;10.518;2024-03-22T07:09:48;52.90;;;30.00;;
7001;SDS011;3541;53.230;10.518;2024-03-22T07:12:14;52.53;;;31.03;;
7001;SDS011;3541;53.230;10.518;2024-03-22T07:14:41;46.87;;;29.57;;
7001;SDS011;3541;53.230;10.518;2024-03-22T07:17:07;52.43;;;31.50;;
7001;SDS011;3541;53.230;10.518;2024-03-22T07:19:34;53.93;;;31.50;;
7001;SDS011;3541;53.230;10.518;2024-03-22T07:22:00;55.50;;;30.60;;
7001;SDS011;3541;53.230;10.518;2024-03-22T07:24:26;55.17;;;32.07;;
7001;SDS011;3541;53.230;10.518;2024-03-22T07:26:52;54.63;;;32.27;;
7001;SDS011;3541;53.230;10.518;2024-03-22T07:29:19;54.50;;;31.10;;
7001;SDS011;3541;53.230;10.518;2024-03-22T07:31:46;53.07;;;30.67;;
7001;SDS011;3541;53.230;10.518;2024-03-22T07:34:12;57.70;;;31.80;;
7001;SDS011;3541;53.230;10.518;2024-03-22T07:36:38;51.93;;;31.53;;
7001;SDS011;3541;53.230;10.518;2024-03-22T07:39:05;58.33;;;33.07;;
7001;SDS011;3541;53.230;10.518;2024-03-22T07:41:31;54.03;;;31.97;;
7001;SDS011;3541;53.230;10.518;2024-03-22T07:43:58;58.40;;;33.90;;
7001;SDS011;3541;53.230;10.518;2024-03-22T07:46:24;59.10;;;33.10;;
7001;SDS011;3541;53.230;10.518;2024-03-22T07:48:52;56.53;;;32.70;;
7001;SDS011;3541;53.230;10.518;2024-03-22T07:51:18;59.37;;;33.47;;
7001;SDS011;3541;53.230;10.518;2024-03-22T07:53:45;59.03;;;34.47;;
7001;SDS011;3541;53.230;10.518;2024-03-22T07:56:11;62.27;;;33.60;;
7001;SDS011;3541;53.230;10.518;2024-03-22T07:58:37;61.30;;;34.27;;
7001;SDS011;3541;53.230;10.518;2024-03-22T08:01:03;64.37;;;34.63;;
7001;SDS011;3541;53.230;10.518;2024-03-22T08:03:30;55.07;;;33.83;;
7001;SDS011;3541;53.230;10.518;2024-03-22T08:05:57;63.40;;;33.10;;
7001;SDS011;3541;53.230;10.518;2024-03-22T08:08:24;69.37;;;36.00;;
7001;SDS011;3541;53.230;10.518;2024-03-22T08:10:50;63.27;;;35.40;;
7001;SDS011;3541;53.230;10.518;2024-03-22T08:13:16;63.90;;;36.07;;
7001;SDS011;3541;53.230;10.518;2024-03-22T08:15:42;62.70;;;34.03;;
7001;SDS011;3541;53.230;10.518;2024-03-22T08:18:10;60.03;;;34.93;;
7001;SDS011;3541;53.230;10.518;2024-03-22T08:20:36;58.00;;;34.20;;
7001;SDS011;3541;53.230;10.518;2024-03-22T08:23:05;59.13;;;33.53;;
7001;SDS011;3541;53.230;10.518;2024-03-22T08:25:30;63.23;;;34.57;;
7001;SDS011;3541;53.230;10.518;2024-03-22T08:27:57;63.70;;;35.87;;
7001;SDS011;3541;53.230;10.518;2024-03-22T08:30:24;63.47;;;35.07;;
7001;SDS011;3541;53.230;10.518;2024-03-22T08:32:51;64.50;;;34.53;;
7001;SDS011;3541;53.230;10.518;2024-03-22T08:35:17;62.13;;;36.57;;
7001;SDS011;3541;53.230;10.518;2024-03-22T08:37:44;59.50;;;33.87;;
7001;SDS011;3541;53.230;10.518;2024-03-22T08:40:11;65.97;;;35.73;;
7001;SDS011;3541;53.230;10.518;2024-03-22T08:42:38;64.40;;;35.03;;
7001;SDS011;3541;53.230;10.518;2024-03-22T08:45:05;63.33;;;35.83;;
7001;SDS011;3541;53.230;10.518;2024-03-22T08:47:33;71.17;;;36.23;;
7001;SDS011;3541;53.230;10.518;2024-03-22T08:49:58;62.50;;;33.77;;
7001;SDS011;3541;53.230;10.518;2024-03-22T08:52:25;65.07;;;35.77;;
7001;SDS011;3541;53.230;10.518;2024-03-22T08:54:50;62.50;;;34.70;;
7001;SDS011;3541;53.230;10.518;2024-03-22T08:57:19;71.17;;;36.30;;
7001;SDS011;3541;53.230;10.518;2024-03-22T08:59:45;67.67;;;36.77;;
7001;SDS011;3541;53.230;10.518;2024-03-22T09:02:12;63.57;;;36.70;;
7001;SDS011;3541;53.230;10.518;2024-03-22T09:04:37;70.80;;;35.90;;
7001;SDS011;3541;53.230;10.518;2024-03-22T09:07:04;68.53;;;35.97;;
7001;SDS011;3541;53.230;10.518;2024-03-22T09:09:30;68.90;;;36.43;;
7001;SDS011;3541;53.230;10.518;2024-03-22T09:11:56;65.30;;;34.90;;
7001;SDS011;3541;53.230;10.518;2024-03-22T09:14:23;68.37;;;35.60;;
7001;SDS011;3541;53.230;10.518;2024-03-22T09:16:50;64.27;;;35.50;;
7001;SDS011;3541;53.230;10.518;2024-03-22T09:19:16;65.57;;;36.47;;
7001;SDS011;3541;53.230;10.518;2024-03-22T09:21:42;62.13;;;35.20;;
7001;SDS011;3541;53.230;10.518;2024-03-22T09:24:09;66.90;;;34.33;;
7001;SDS011;3541;53.230;10.518;2024-03-22T09:26:35;66.37;;;35.93;;
7001;SDS011;3541;53.230;10.518;2024-03-22T09:29:01;68.73;;;34.07;;
7001;SDS011;3541;53.230;10.518;2024-03-22T09:31:29;63.40;;;33.27;;
7001;SDS011;3541;53.230;10.518;2024-03-22T09:33:57;61.30;;;33.70;;
7001;SDS011;3541;53.230;10.518;2024-03-22T09:36:23;67.27;;;33.07;;
7001;SDS011;3541;53.230;10.518;2024-03-22T09:38:49;62.10;;;34.63;;
7001;SDS011;3541;53.230;10.518;2024-03-22T09:41:15;64.00;;;33.90;;
7001;SDS011;3541;53.230;10.518;2024-03-22T09:43:47;63.20;;;32.83;;
7001;SDS011;3541;53.230;10.518;2024-03-22T09:46:16;60.40;;;32.60;;
7001;SDS011;3541;53.230;10.518;2024-03-22T09:48:46;63.23;;;33.50;;
7001;SDS011;3541;53.230;10.518;2024-03-22T09:51:12;61.87;;;31.57;;
7001;SDS011;3541;53.230;10.518;2024-03-22T09:53:40;58.10;;;31.73;;
7001;SDS011;3541;53.230;10.518;2024-03-22T09:56:08;59.53;;;31.63;;
7001;SDS011;3541;53.230;10.518;2024-03-22T09:58:36;61.70;;;31.77;;
7001;SDS011;3541;53.230;10.518;2024-03-22T10:01:02;62.73;;;33.97;;
7001;SDS011;3541;53.230;10.518;2024-03-22T10:03:30;57.60;;;31.27;;
7001;SDS011;3541;53.230;10.518;2024-03-22T10:05:57;61.37;;;32.97;;
7001;SDS011;3541;53.230;10.518;2024-03-22T10:08:24;66.00;;;34.47;;
7001;SDS011;3541;53.230;10.518;2024-03-22T10:10:49;58.50;;;31.57;;
7001;SDS011;3541;53.230;10.518;2024-03-22T10:13:16;61.77;;;32.77;;
7001;SDS011;3541;53.230;10.518;2024-03-22T10:15:42;62.60;;;34.07;;
7001;SDS011;3541;53.230;10.518;2024-03-22T10:18:09;66.53;;;32.67;;
7001;SDS011;3541;53.230;10.518;2024-03-22T10:20:35;64.03;;;32.87;;
7001;SDS011;3541;53.230;10.518;2024-03-22T10:23:03;57.07;;;30.80;;
7001;SDS011;3541;53.230;10.518;2024-03-22T10:25:29;80.43;;;43.73;;
7001;SDS011;3541;53.230;10.518;2024-03-22T10:27:55;75.17;;;39.83;;
7001;SDS011;3541;53.230;10.518;2024-03-22T10:30:22;54.30;;;30.17;;
7001;SDS011;3541;53.230;10.518;2024-03-22T10:32:49;55.93;;;31.00;;
7001;SDS011;3541;53.230;10.518;2024-03-22T10:35:15;53.83;;;30.37;;
7001;SDS011;3541;53.230;10.518;2024-03-22T10:37:43;62.43;;;33.57;;
7001;SDS011;3541;53.230;10.518;2024-03-22T10:40:10;61.70;;;31.70;;
7001;SDS011;3541;53.230;10.518;2024-03-22T10:42:39;58.73;;;31.30;;
7001;SDS011;3541;53.230;10.518;2024-03-22T10:45:06;57.43;;;30.70;;
7001;SDS011;3541;53.230;10.518;2024-03-22T10:47:34;117.63;;;72.63;;
7001;SDS011;3541;53.230;10.518;2024-03-22T10:50:03;55.10;;;32.07;;
7001;SDS011;3541;53.230;10.518;2024-03-22T10:52:33;57.63;;;29.83;;
7001;SDS011;3541;53.230;10.518;2024-03-22T10:55:03;60.63;;;29.43;;
7001;SDS011;3541;53.230;10.518;2024-03-22T10:57:33;53.63;;;28.37;;
7001;SDS011;3541;53.230;10.518;2024-03-22T11:00:02;50.97;;;28.73;;
7001;SDS011;3541;53.230;10.518;2024-03-22T11:02:35;50.80;;;28.67;;
7001;SDS011;3541;53.230;10.518;2024-03-22T11:05:00;50.00;;;28.43;;
7001;SDS011;3541;53.230;10.518;2024-03-22T11:07:28;48.83;;;27.43;;
7001;SDS011;3541;53.230;10.518;2024-03-22T11:09:55;47.57;;;27.50;;
7001;SDS011;3541;53.230;10.518;2024-03-22T11:12:26;48.20;;;25.93;;
7001;SDS011;3541;53.230;10.518;2024-03-22T11:14:55;51.23;;;27.43;;
7001;SDS011;3541;53.230;10.518;2024-03-22T11:17:22;50.10;;;27.77;;
7001;SDS011;3541;53.230;10.518;2024-03-22T11:19:49;52.53;;;28.83;;
7001;SDS011;3541;53.230;10.518;2024-03-22T11:22:16;54.90;;;30.03;;
7001;SDS011;3541;53.230;10.518;2024-03-22T11:24:42;60.47;;;32.73;;
7001;SDS011;3541;53.230;10.518;2024-03-22T11:27:09;49.60;;;28.43;;
7001;SDS011;3541;53.230;10.518;2024-03-22T11:29:35;51.60;;;29.10;;
7001;SDS011;3541;53.230;10.518;2024-03-22T11:32:05;51.10;;;28.67;;
7001;SDS011;3541;53.230;10.518;2024-03-22T11:34:33;51.03;;;29.23;;
7001;SDS011;3541;53.230;10.518;2024-03-22T11:37:00;54.13;;;28.37;;
7001;SDS011;3541;53.230;10.518;2024-03-22T11:39:26;54.13;;;28.77;;
7001;SDS011;3541;53.230;10.518;2024-03-22T11:41:52;48.67;;;28.20;;
7001;SDS011;3541;53.230;10.518;2024-03-22T11:44:18;51.07;;;27.73;;
7001;SDS011;3541;53.230;10.518;2024-03-22T11:46:45;71.23;;;37.57;;
7001;SDS011;3541;53.230;10.518;2024-03-22T11:49:13;47.37;;;26.87;;
7001;SDS011;3541;53.230;10.518;2024-03-22T11:51:39;51.47;;;28.83;;
7001;SDS011;3541;53.230;10.518;2024-03-22T11:54:06;51.67;;;27.77;;
7001;SDS011;3541;53.230;10.518;2024-03-22T11:56:34;51.60;;;28.43;;
7001;SDS011;3541;53.230;10.518;2024-03-22T11:59:00;45.27;;;26.07;;
7001;SDS011;3541;53.230;10.518;2024-03-22T12:01:28;48.83;;;26.60;;
7001;SDS011;3541;53.230;10.518;2024-03-22T12:03:54;46.50;;;24.97;;
7001;SDS011;3541;53.230;10.518;2024-03-22T12:06:22;47.90;;;26.80;;
7001;SDS011;3541;53.230;10.518;2024-03-22T12:08:48;48.07;;;26.80;;
7001;SDS011;3541;53.230;10.518;2024-03-22T12:11:14;51.67;;;26.93;;
7001;SDS011;3541;53.230;10.518;2024-03-22T12:13:40;40.70;;;23.73;;
7001;SDS011;3541;53.230;10.518;2024-03-22T12:16:06;39.10;;;22.67;;
7001;SDS011;3541;53.230;10.518;2024-03-22T12:18:32;37.30;;;20.40;;
7001;SDS011;3541;53.230;10.518;2024-03-22T12:20:59;36.83;;;20.17;;
7001;SDS011;3541;53.230;10.518;2024-03-22T12:23:27;30.77;;;18.07;;
7001;SDS011;3541;53.230;10.518;2024-03-22T12:25:53;29.40;;;17.30;;
7001;SDS011;3541;53.230;10.518;2024-03-22T12:28:20;30.40;;;16.77;;
7001;SDS011;3541;53.230;10.518;2024-03-22T12:30:47;30.80;;;17.27;;
7001;SDS011;3541;53.230;10.518;2024-03-22T12:33:14;23.83;;;15.60;;
7001;SDS011;3541;53.230;10.518;2024-03-22T12:35:40;26.27;;;16.40;;
7001;SDS011;3541;53.230;10.518;2024-03-22T12:38:06;26.30;;;14.90;;
7001;SDS011;3541;53.230;10.518;2024-03-22T12:40:36;21.33;;;14.10;;
7001;SDS011;3541;53.230;10.518;2024-03-22T12:43:01;24.70;;;13.23;;
7001;SDS011;3541;53.230;10.518;2024-03-22T12:45:28;23.07;;;14.27;;
7001;SDS011;3541;53.230;10.518;2024-03-22T12:47:54;20.83;;;12.53;;
7001;SDS011;3541;53.230;10.518;2024-03-22T12:50:20;18.27;;;12.50;;
7001;SDS011;3541;53.230;10.518;2024-03-22T12:52:46;20.07;;;12.47;;
7001;SDS011;3541;53.230;10.518;2024-03-22T12:55:13;20.40;;;13.83;;
7001;SDS011;3541;53.230;10.518;2024-03-22T12:57:40;18.57;;;11.37;;
7001;SDS011;3541;53.230;10.518;2024-03-22T13:00:08;19.30;;;11.07;;
7001;SDS011;3541;53.230;10.518;2024-03-22T13:02:38;17.87;;;11.27;;
7001;SDS011;3541;53.230;10.518;2024-03-22T13:05:05;13.20;;;9.37;;
7001;SDS011;3541;53.230;10.518;2024-03-22T13:07:31;15.83;;;10.37;;
7001;SDS011;3541;53.230;10.518;2024-03-22T13:09:58;14.00;;;9.53;;
7001;SDS011;3541;53.230;10.518;2024-03-22T13:12:25;14.10;;;10.30;;
7001;SDS011;3541;53.230;10.518;2024-03-22T13:14:53;17.60;;;11.60;;
7001;SDS011;3541;53.230;10.518;2024-03-22T13:17:18;14.57;;;9.87;;
7001;SDS011;3541;53.230;10.518;2024-03-22T13:19:45;19.53;;;11.33;;
7001;SDS011;3541;53.230;10.518;2024-03-22T13:22:11;16.93;;;11.47;;
7001;SDS011;3541;53.230;10.518;2024-03-22T13:24:39;18.00;;;11.63;;
7001;SDS011;3541;53.230;10.518;2024-03-22T13:27:05;16.60;;;11.20;;
7001;SDS011;3541;53.230;10.518;2024-03-22T13:29:33;14.83;;;9.67;;
7001;SDS011;3541;53.230;10.518;2024-03-22T13:32:00;12.30;;;9.10;;
7001;SDS011;3541;53.230;10.518;2024-03-22T13:34:26;14.27;;;9.07;;
7001;SDS011;3541;53.230;10.518;2024-03-22T13:36:53;12.50;;;8.40;;
7001;SDS011;3541;53.230;10.518;2024-03-22T13:39:19;14.60;;;9.37;;
7001;SDS011;3541;53.230;10.518;2024-03-22T13:41:45;11.87;;;8.80;;
7001;SDS011;3541;53.230;10.518;2024-03-22T13:44:12;12.93;;;8.60;;
7001;SDS011;3541;53.230;10.518;2024-03-22T13:46:38;11.13;;;7.83;;
7001;SDS011;3541;53.230;10.518;2024-03-22T13:49:12;12.97;;;9.07;;
7001;SDS011;3541;53.230;10.518;2024-03-22T13:51:41;12.97;;;8.50;;
7001;SDS011;3541;53.230;10.518;2024-03-22T13:54:07;11.97;;;8.73;;
7001;SDS011;3541;53.230;10.518;2024-03-22T13:56:34;12.37;;;9.00;;
7001;SDS011;3541;53.230;10.518;2024-03-22T13:59:00;12.27;;;8.93;;
7001;SDS011;3541;53.230;10.518;2024-03-22T14:01:27;11.40;;;8.03;;
7001;SDS011;3541;53.230;10.518;2024-03-22T14:03:53;11.63;;;8.50;;
7001;SDS011;3541;53.230;10.518;2024-03-22T14:06:21;12.83;;;8.30;;
7001;SDS011;3541;53.230;10.518;2024-03-22T14:08:47;11.47;;;8.47;;
7001;SDS011;3541;53.230;10.518;2024-03-22T14:11:14;12.17;;;8.47;;
7001;SDS011;3541;53.230;10.518;2024-03-22T14:13:39;12.00;;;8.03;;
7001;SDS011;3541;53.230;10.518;2024-03-22T14:16:06;11.60;;;8.10;;
7001;SDS011;3541;53.230;10.518;2024-03-22T14:18:33;12.20;;;8.80;;
7001;SDS011;3541;53.230;10.518;2024-03-22T14:21:00;10.50;;;7.83;;
7001;SDS011;3541;53.230;10.518;2024-03-22T14:23:27;9.83;;;7.83;;
7001;SDS011;3541;53.230;10.518;2024-03-22T14:25:54;11.30;;;7.90;;
7001;SDS011;3541;53.230;10.518;2024-03-22T14:28:20;11.43;;;8.10;;
7001;SDS011;3541;53.230;10.518;2024-03-22T14:30:46;12.33;;;8.90;;
7001;SDS011;3541;53.230;10.518;2024-03-22T14:33:12;11.80;;;8.10;;
7001;SDS011;3541;53.230;10.518;2024-03-22T14:35:38;13.63;;;8.60;;